createdAt,value
2019-02-16T00:03:31.956Z,9.63
2019-02-16T00:08:38.691Z,9.54
2019-02-16T00:13:45.293Z,9.41
2019-02-16T00:18:51.236Z,9.43
2019-02-16T00:23:57.947Z,9.22
2019-02-16T00:29:03.727Z,9.21
2019-02-16T00:34:09.495Z,9.40
2019-02-16T00:39:15.228Z,9.39
2019-02-16T00:44:21.592Z,9.37
2019-02-16T00:49:27.599Z,9.35
2019-02-16T00:54:34.417Z,9.30
2019-02-16T00:59:40.672Z,9.06
2019-02-16T01:04:46.329Z,9.19
2019-02-16T01:09:52.475Z,8.91
2019-02-16T01:14:58.513Z,9.11
2019-02-16T01:20:06.829Z,8.98
2019-02-16T01:25:14.303Z,9.09
2019-02-16T01:30:20.733Z,9.04
2019-02-16T01:35:26.297Z,9.02
2019-02-16T01:40:32.734Z,9.12
2019-02-16T01:45:39.128Z,9.09
2019-02-16T01:50:45.163Z,8.99
2019-02-16T01:55:51.592Z,8.73
2019-02-16T02:00:57.760Z,8.58
2019-02-16T02:06:04.619Z,8.50
2019-02-16T02:11:10.824Z,8.58
2019-02-16T02:16:17.064Z,8.35
2019-02-16T02:21:23.216Z,8.38
2019-02-16T02:26:29.134Z,8.27
2019-02-16T02:31:37.456Z,8.39
2019-02-16T02:36:44.034Z,8.01
2019-02-16T02:41:49.590Z,8.30
2019-02-16T02:46:55.451Z,8.40
2019-02-16T02:52:01.490Z,8.31
2019-02-16T02:57:07.203Z,8.09
2019-02-16T03:02:14.926Z,8.13
2019-02-16T03:07:20.577Z,7.96
2019-02-16T03:12:26.621Z,8.22
2019-02-16T03:17:32.931Z,8.11
2019-02-16T03:23:16.331Z,8.03
2019-02-16T03:28:34.470Z,8.02
2019-02-16T03:33:43.519Z,7.86
2019-02-16T03:38:58.062Z,7.77
2019-02-16T03:44:04.147Z,7.79
2019-02-16T03:49:10.668Z,7.61
2019-02-16T03:54:17.913Z,7.72
2019-02-16T03:59:23.648Z,7.54
2019-02-16T04:04:29.369Z,7.49
2019-02-16T04:09:35.382Z,7.49
2019-02-16T04:14:40.946Z,7.24
2019-02-16T04:19:46.850Z,7.45
2019-02-16T04:24:53.025Z,7.42
2019-02-16T04:29:59.251Z,7.46
2019-02-16T04:35:07.068Z,7.25
2019-02-16T04:40:12.847Z,7.30
2019-02-16T04:45:18.934Z,7.09
2019-02-16T04:50:24.868Z,7.17
2019-02-16T04:55:30.873Z,7.09
2019-02-16T05:00:36.827Z,6.93
2019-02-16T05:05:42.382Z,6.85
2019-02-16T05:10:48.991Z,6.79
2019-02-16T05:15:54.633Z,6.69
2019-02-16T05:21:02.004Z,6.44
2019-02-16T05:26:08.548Z,6.38
2019-02-16T05:31:14.181Z,6.18
2019-02-16T05:36:21.077Z,6.37
2019-02-16T05:41:26.998Z,6.35
2019-02-16T05:46:32.589Z,6.45
2019-02-16T05:51:38.342Z,6.36
2019-02-16T05:56:44.744Z,6.25
2019-02-16T06:01:54.228Z,6.22
2019-02-16T06:06:59.854Z,5.94
2019-02-16T06:12:05.626Z,5.98
2019-02-16T06:17:13.913Z,6.26
2019-02-16T06:22:19.656Z,5.93
2019-02-16T06:27:26.009Z,5.90
2019-02-16T06:32:32.520Z,6.09
2019-02-16T06:37:38.739Z,6.26
2019-02-16T06:42:44.700Z,6.11
2019-02-16T06:47:50.603Z,6.27
2019-02-16T06:52:56.493Z,6.24
2019-02-16T06:58:03.101Z,6.23
2019-02-16T07:03:08.838Z,6.28
2019-02-16T07:08:15.841Z,6.43
2019-02-16T07:13:22.123Z,6.39
2019-02-16T07:18:29.354Z,6.38
2019-02-16T07:23:35.035Z,6.30
2019-02-16T07:28:41.141Z,6.60
2019-02-16T07:33:46.875Z,6.90
2019-02-16T07:38:53.380Z,6.78
2019-02-16T07:44:02.232Z,6.90
2019-02-16T07:49:25.503Z,6.93
2019-02-16T07:54:41.775Z,6.78
2019-02-16T07:59:52.121Z,7.13
2019-02-16T08:04:59.513Z,7.12
2019-02-16T08:10:19.938Z,7.33
2019-02-16T08:15:45.208Z,7.49
2019-02-16T08:20:53.690Z,7.88
2019-02-16T08:26:01.513Z,7.80
2019-02-16T08:31:09.230Z,7.83
2019-02-16T08:36:19.602Z,8.43
2019-02-16T08:41:32.952Z,8.75
2019-02-16T08:46:45.482Z,8.99
2019-02-16T08:51:54.526Z,9.28
2019-02-16T08:57:11.415Z,9.69
2019-02-16T09:02:25.661Z,9.48
2019-02-16T09:07:49.712Z,9.71
2019-02-16T09:12:58.318Z,10.11
2019-02-16T09:18:18.133Z,10.31
2019-02-16T09:23:31.453Z,10.81
2019-02-16T09:28:55.020Z,11.20
2019-02-16T09:34:02.266Z,11.19
2019-02-16T09:39:25.178Z,11.51
2019-02-16T09:44:35.777Z,12.15
2019-02-16T09:49:43.096Z,12.55
2019-02-16T09:54:51.299Z,12.94
2019-02-16T09:59:59.262Z,13.13
2019-02-16T10:05:14.489Z,13.51
2019-02-16T10:10:47.380Z,13.82
2019-02-16T10:16:00.876Z,14.34
2019-02-16T10:21:12.934Z,14.52
2019-02-16T10:26:22.490Z,14.81
2019-02-16T10:31:37.206Z,15.49
2019-02-16T10:36:45.532Z,15.40
2019-02-16T10:42:00.024Z,15.82
2019-02-16T10:47:13.514Z,15.79
2019-02-16T10:52:26.578Z,16.46
2019-02-16T10:57:49.055Z,16.36
2019-02-16T11:03:00.585Z,16.84
2019-02-16T11:08:12.037Z,17.25
2019-02-16T11:13:20.365Z,17.53
2019-02-16T11:18:45.450Z,17.71
2019-02-16T11:24:01.705Z,18.30
2019-02-16T11:29:12.797Z,17.54
2019-02-16T11:34:33.738Z,17.97
2019-02-16T11:39:43.394Z,18.14
2019-02-16T11:44:51.339Z,18.12
2019-02-16T11:50:08.701Z,18.85
2019-02-16T11:55:34.237Z,19.30
2019-02-16T12:00:43.361Z,18.96
2019-02-16T12:05:52.020Z,19.36
2019-02-16T12:11:20.138Z,19.73
2019-02-16T12:16:33.666Z,19.78
2019-02-16T12:21:43.020Z,19.49
2019-02-16T12:26:57.321Z,18.67
2019-02-16T12:32:06.140Z,19.36
2019-02-16T12:37:15.865Z,19.04
2019-02-16T12:42:35.997Z,19.55
2019-02-16T12:47:53.822Z,19.94
2019-02-16T12:53:04.827Z,20.11
2019-02-16T12:58:12.199Z,20.39
2019-02-16T13:03:23.881Z,20.14
2019-02-16T13:08:39.410Z,20.03
2019-02-16T13:13:52.088Z,20.90
2019-02-16T13:19:02.663Z,21.06
2019-02-16T13:24:13.231Z,21.26
2019-02-16T13:29:30.231Z,20.49
2019-02-16T13:34:38.610Z,20.59
2019-02-16T13:39:56.169Z,21.14
2019-02-16T13:45:08.500Z,21.29
2019-02-16T13:50:17.580Z,21.55
2019-02-16T13:55:42.559Z,21.36
2019-02-16T14:00:51.022Z,21.16
2019-02-16T14:06:10.537Z,21.02
2019-02-16T14:11:25.072Z,21.64
2019-02-16T14:16:39.037Z,22.09
2019-02-16T14:21:47.257Z,21.46
2019-02-16T14:26:55.285Z,21.25
2019-02-16T14:32:05.821Z,20.60
2019-02-16T14:37:34.077Z,21.55
2019-02-16T14:42:46.019Z,20.75
2019-02-16T14:47:59.733Z,21.14
2019-02-16T14:53:09.005Z,22.17
2019-02-16T14:58:18.009Z,22.04
2019-02-16T15:03:27.263Z,22.57
2019-02-16T15:08:35.252Z,23.12
2019-02-16T15:13:45.128Z,23.94
2019-02-16T15:18:54.594Z,23.09
2019-02-16T15:24:04.911Z,23.73
2019-02-16T15:29:15.286Z,24.39
2019-02-16T15:34:24.922Z,24.47
2019-02-16T15:39:33.433Z,24.17
2019-02-16T15:44:43.148Z,24.36
2019-02-16T15:50:13.401Z,23.67
2019-02-16T15:55:25.357Z,23.02
2019-02-16T16:00:35.883Z,22.80
2019-02-16T16:05:44.989Z,23.01
2019-02-16T16:10:53.575Z,23.06
2019-02-16T16:16:02.326Z,22.54
2019-02-16T16:21:14.852Z,21.54
2019-02-16T16:26:32.955Z,20.66
2019-02-16T16:31:41.761Z,19.81
2019-02-16T16:36:50.754Z,19.33
2019-02-16T16:42:08.668Z,18.74
2019-02-16T16:47:18.284Z,18.40
2019-02-16T16:52:25.745Z,18.08
2019-02-16T16:57:37.261Z,17.66
2019-02-16T17:03:02.618Z,17.52
2019-02-16T17:08:10.656Z,17.33
2019-02-16T17:13:30.402Z,17.34
2019-02-16T17:18:43.806Z,17.15
2019-02-16T17:23:54.458Z,16.89
2019-02-16T17:29:05.932Z,16.65
2019-02-16T17:34:13.568Z,16.46
2019-02-16T17:39:39.852Z,16.37
2019-02-16T17:44:50.478Z,16.12
2019-02-16T17:50:00.925Z,15.96
2019-02-16T17:55:12.917Z,16.03
2019-02-16T18:00:24.338Z,15.79
2019-02-16T18:05:49.194Z,15.62
2019-02-16T18:11:13.612Z,15.49
2019-02-16T18:16:20.829Z,15.34
2019-02-16T18:21:34.893Z,15.33
2019-02-16T18:26:56.624Z,15.21
2019-02-16T18:32:17.271Z,14.94
2019-02-16T18:37:31.994Z,14.79
2019-02-16T18:42:49.524Z,14.66
2019-02-16T18:48:02.891Z,14.81
2019-02-16T18:53:16.935Z,14.64
2019-02-16T18:58:24.796Z,14.59
2019-02-16T19:03:51.773Z,14.37
2019-02-16T19:08:59.722Z,14.33
2019-02-16T19:14:10.033Z,14.11
2019-02-16T19:19:20.654Z,13.82
2019-02-16T19:24:28.949Z,13.49
2019-02-16T19:29:36.542Z,13.57
2019-02-16T19:35:00.685Z,13.49
2019-02-16T19:40:15.098Z,13.41
2019-02-16T19:45:28.635Z,13.35
2019-02-16T19:50:52.836Z,13.39
2019-02-16T19:56:06.688Z,13.43
2019-02-16T20:01:16.054Z,13.37
2019-02-16T20:06:23.381Z,13.35
2019-02-16T20:11:44.137Z,13.38
2019-02-16T20:16:56.642Z,13.24
2019-02-16T20:22:23.844Z,13.43
2019-02-16T20:27:45.447Z,13.37
2019-02-16T20:32:58.631Z,13.17
2019-02-16T20:38:11.279Z,13.16
2019-02-16T20:43:19.270Z,13.20
2019-02-16T20:48:45.349Z,13.03
2019-02-16T20:53:58.655Z,13.12
2019-02-16T20:59:09.865Z,13.16
2019-02-16T21:04:17.604Z,12.95
2019-02-16T21:09:28.222Z,13.01
2019-02-16T21:14:51.901Z,12.57
2019-02-16T21:20:07.941Z,12.40
2019-02-16T21:25:30.193Z,12.36
2019-02-16T21:30:40.192Z,12.16
2019-02-16T21:36:00.105Z,12.37
2019-02-16T21:41:25.761Z,12.06
2019-02-16T21:46:33.533Z,12.07
2019-02-16T21:51:54.749Z,11.82
2019-02-16T21:57:02.640Z,11.68
2019-02-16T22:02:11.649Z,11.91
2019-02-16T22:07:19.245Z,11.78
2019-02-16T22:12:26.795Z,11.78
2019-02-16T22:17:34.029Z,11.73
2019-02-16T22:22:39.673Z,11.81
2019-02-16T22:27:45.587Z,11.98
2019-02-16T22:32:53.633Z,11.90
2019-02-16T22:38:00.283Z,11.72
2019-02-16T22:43:06.164Z,11.58
2019-02-16T22:48:13.263Z,11.52
2019-02-16T22:53:20.575Z,11.51
2019-02-16T22:58:29.103Z,11.23
2019-02-16T23:03:35.244Z,11.40
2019-02-16T23:08:40.839Z,11.53
2019-02-16T23:13:47.624Z,11.82
2019-02-16T23:18:54.537Z,11.89
2019-02-16T23:24:02.023Z,11.95
2019-02-16T23:29:07.632Z,11.82
2019-02-16T23:34:13.776Z,11.68
2019-02-16T23:39:19.611Z,11.50
2019-02-16T23:44:25.405Z,11.41
2019-02-16T23:49:31.115Z,11.11
2019-02-16T23:54:38.441Z,10.88
2019-02-16T23:59:45.501Z,10.67
